English Lake, Indiana
Current Conditions -  °F | °C
As of 7:15 AM on Tuesday 21 Oct 2014 (Local Time) from KOXI Reporting Station
Broken Clouds Broken Clouds  
Wind Chill: 43°   Ceiling: 6000
Heat Index: 47°   Visibility: 10mi
Dew Point: 43°   Wind: 8mph
Humidity: 87%   Direction: 350°N
Pressure: 30.05"   Gusts: NA
Location:  41.2283°N, 86.6584°W
Report Text: KOXI 211215Z AUTO 35007KT 10SM SCT047 BKN060 08/06 A3005 RMK AO1 T00820062
Loading
Personal Weather Stations






























Interactive Weather Map
Tropical Storm Tracking
New forecast layout! Learn more

10-Day Weather Forecast

Advertisements
Track Severe Weather on mobile